Time;durP1;ratioP1;P1;durP2;ratioP2;P2;SDS_P1;SDS_P2;PMS_P1;PMS_P2;Temp;Humidity;BMP_temperature;BMP_pressure;BME280_temperature;BME280_humidity;BME280_pressure;Samples;Min_cycle;Max_cycle;Signal;HPM_P1;HPM_P2
2021/09/30 00:02:02;;;;;;;1.00;0.30;;;13.10;69.20;;;;;;5052964;28;20039;-66
2021/09/30 00:04:27;;;;;;;0.73;0.30;;;13.10;69.10;;;;;;5053521;28;20043;-65
2021/09/30 00:06:53;;;;;;;1.88;0.40;;;13.10;69.10;;;;;;5055290;28;20120;-65
2021/09/30 00:09:19;;;;;;;2.38;0.30;;;13.10;69.00;;;;;;5055502;28;20099;-66
2021/09/30 00:11:48;;;;;;;1.10;0.30;;;13.00;69.00;;;;;;5054229;28;20033;-65
2021/09/30 00:33:25;;;;;;;2.20;0.40;;;12.60;68.30;;;;;;5052956;28;20095;-66
2021/09/30 00:49:32;;;;;;;2.70;0.30;;;12.20;69.20;;;;;;5049673;28;20471;-65
2021/09/30 02:18:59;;;;;;;0.65;0.30;;;11.80;69.30;;;;;;5052106;28;20444;-64
2021/09/30 02:27:05;;;;;;;5.13;0.38;;;11.80;69.40;;;;;;5050215;28;20037;-65
2021/09/30 02:59:06;;;;;;;1.05;0.60;;;11.70;69.60;;;;;;5036493;28;20103;-65
2021/09/30 03:01:33;;;;;;;1.10;0.25;;;11.60;69.60;;;;;;5036526;28;20519;-65
2021/09/30 03:03:59;;;;;;;1.90;0.40;;;11.60;69.80;;;;;;5030285;28;20034;-63
2021/09/30 03:06:26;;;;;;;2.28;0.43;;;11.40;69.80;;;;;;5031875;28;20033;-65
2021/09/30 03:08:56;;;;;;;0.70;0.30;;;11.40;70.00;;;;;;5034867;28;20488;-65
2021/09/30 03:11:25;;;;;;;0.50;0.30;;;11.30;70.30;;;;;;5030965;28;20420;-65
2021/09/30 03:13:53;;;;;;;2.47;0.50;;;11.30;70.60;;;;;;5036237;28;20037;-65
2021/09/30 03:24:02;;;;;;;1.20;0.55;;;11.20;70.70;;;;;;5032318;28;20463;-65
2021/09/30 03:26:28;;;;;;;1.85;0.63;;;11.10;70.60;;;;;;5027905;28;20033;-65
2021/09/30 03:28:54;;;;;;;1.77;0.60;;;11.10;70.70;;;;;;5033207;28;20060;-65
2021/09/30 03:31:21;;;;;;;1.00;0.55;;;11.00;71.10;;;;;;5030829;28;20046;-65
2021/09/30 03:33:47;;;;;;;2.47;0.65;;;10.90;71.10;;;;;;5031329;28;20037;-65
2021/09/30 03:36:13;;;;;;;2.08;0.70;;;10.90;71.20;;;;;;5025872;28;20034;-66
2021/09/30 03:38:39;;;;;;;1.08;0.70;;;10.80;71.40;;;;;;5024234;28;20055;-65
2021/09/30 03:41:04;;;;;;;0.95;0.60;;;10.80;71.60;;;;;;5026883;28;20160;-65
2021/09/30 03:43:30;;;;;;;1.48;0.50;;;10.80;71.80;;;;;;5033302;28;20044;-65
2021/09/30 03:45:56;;;;;;;1.52;0.57;;;10.70;71.80;;;;;;5025019;28;20558;-63
2021/09/30 03:48:22;;;;;;;1.88;0.50;;;10.70;71.90;;;;;;5024369;28;20130;-65
2021/09/30 04:01:25;;;;;;;2.13;0.60;;;10.60;72.50;;;;;;5031416;28;20396;-65
2021/09/30 04:03:51;;;;;;;1.85;0.57;;;10.60;72.40;;;;;;5025264;28;20292;-65
2021/09/30 04:06:17;;;;;;;1.45;0.50;;;10.60;72.60;;;;;;5027844;28;20036;-65
2021/09/30 04:08:44;;;;;;;3.08;0.60;;;10.60;72.80;;;;;;5030516;28;20122;-64
2021/09/30 04:11:10;;;;;;;1.40;0.47;;;10.60;73.00;;;;;;5028952;28;20072;-64
2021/09/30 04:13:37;;;;;;;0.88;0.40;;;10.60;73.00;;;;;;5030369;28;20411;-65
2021/09/30 04:16:03;;;;;;;1.30;0.50;;;10.60;73.10;;;;;;5029645;28;20029;-65
2021/09/30 04:18:29;;;;;;;9.32;3.38;;;10.60;73.20;;;;;;5032445;28;20040;-64
2021/09/30 04:20:55;;;;;;;94.05;43.35;;;10.70;73.00;;;;;;5029546;28;20033;-65
2021/09/30 04:23:21;;;;;;;46.65;25.40;;;10.70;73.10;;;;;;5026803;28;20067;-65
2021/09/30 04:25:47;;;;;;;18.38;8.60;;;10.70;73.00;;;;;;5028525;28;20036;-65
2021/09/30 04:28:14;;;;;;;6.30;3.10;;;10.70;73.10;;;;;;5028267;28;20041;-65
2021/09/30 04:30:40;;;;;;;2.92;1.60;;;10.70;73.10;;;;;;5015794;28;20072;-65
2021/09/30 04:33:06;;;;;;;2.20;1.20;;;10.70;73.00;;;;;;5026151;28;20109;-66
2021/09/30 04:35:32;;;;;;;4.80;2.50;;;10.70;72.90;;;;;;5029345;28;20132;-65
2021/09/30 04:37:57;;;;;;;5.75;3.00;;;10.70;73.00;;;;;;5031767;28;20030;-63
2021/09/30 04:40:23;;;;;;;5.28;2.15;;;10.70;73.10;;;;;;5032964;28;20045;-66
2021/09/30 04:42:49;;;;;;;6.18;1.35;;;10.70;73.10;;;;;;5029218;28;20408;-66
2021/09/30 04:45:14;;;;;;;2.38;1.00;;;10.70;73.00;;;;;;5026303;28;20477;-65
2021/09/30 04:47:40;;;;;;;2.60;1.20;;;10.80;73.00;;;;;;5031611;28;20444;-66
2021/09/30 04:50:06;;;;;;;4.82;1.35;;;10.70;72.80;;;;;;5034880;28;20048;-66
2021/09/30 04:52:32;;;;;;;3.42;1.00;;;10.70;72.70;;;;;;5034072;28;20487;-66
2021/09/30 04:54:58;;;;;;;2.55;0.90;;;10.70;72.60;;;;;;5035464;28;21022;-65
2021/09/30 04:57:23;;;;;;;2.58;0.95;;;10.60;72.40;;;;;;5033952;28;20033;-66
2021/09/30 04:59:49;;;;;;;1.58;0.73;;;10.60;72.50;;;;;;5036332;28;20033;-65
2021/09/30 05:02:14;;;;;;;2.38;0.70;;;10.50;72.50;;;;;;5034447;28;20070;-66
2021/09/30 05:04:40;;;;;;;3.45;1.20;;;10.50;72.70;;;;;;5039678;28;20124;-66
2021/09/30 05:07:06;;;;;;;1.95;1.05;;;10.50;73.10;;;;;;5037942;28;20396;-65
2021/09/30 05:09:33;;;;;;;7.57;1.70;;;10.40;73.30;;;;;;5040214;28;20040;-66
2021/09/30 05:12:01;;;;;;;2.92;1.60;;;10.50;73.20;;;;;;5036478;28;20084;-66
2021/09/30 05:14:27;;;;;;;5.10;1.55;;;10.50;73.00;;;;;;5037078;28;20171;-65
2021/09/30 05:16:53;;;;;;;4.18;1.60;;;10.40;72.90;;;;;;5038463;28;20524;-66
2021/09/30 05:19:20;;;;;;;4.22;1.85;;;10.40;72.80;;;;;;5038371;28;20052;-66
2021/09/30 05:21:46;;;;;;;3.55;2.08;;;10.30;72.80;;;;;;5038923;28;20033;-65
2021/09/30 05:24:11;;;;;;;6.25;2.10;;;10.20;72.80;;;;;;5035533;28;20094;-65
2021/09/30 05:26:37;;;;;;;6.88;2.50;;;10.20;72.80;;;;;;5037808;28;20076;-66
2021/09/30 05:29:03;;;;;;;7.22;2.72;;;10.10;72.80;;;;;;5038454;28;20519;-65
2021/09/30 05:31:31;;;;;;;6.82;2.20;;;10.10;72.90;;;;;;5033013;28;20099;-65
2021/09/30 05:33:57;;;;;;;4.30;1.63;;;10.00;73.00;;;;;;5037621;28;20064;-65
2021/09/30 05:36:23;;;;;;;3.03;1.35;;;9.90;73.00;;;;;;5039419;28;20060;-66
2021/09/30 05:38:49;;;;;;;5.32;1.02;;;9.90;73.30;;;;;;5039885;28;20082;-66
2021/09/30 05:41:14;;;;;;;2.60;0.77;;;9.80;73.40;;;;;;5056700;28;20033;-66
2021/09/30 05:43:45;;;;;;;2.80;0.75;;;9.80;73.70;;;;;;5059049;28;20492;-65
2021/09/30 05:46:14;;;;;;;2.55;0.52;;;9.70;73.90;;;;;;5057517;28;20075;-66
2021/09/30 05:48:40;;;;;;;0.98;0.57;;;9.60;74.00;;;;;;5055535;28;20037;-66
2021/09/30 05:51:05;;;;;;;3.30;0.60;;;9.60;74.20;;;;;;5056348;28;20396;-67
2021/09/30 05:53:31;;;;;;;2.00;0.90;;;9.60;74.40;;;;;;5056521;28;20037;-65
2021/09/30 05:55:56;;;;;;;2.30;0.98;;;9.40;74.50;;;;;;5056419;28;20045;-66
2021/09/30 05:58:22;;;;;;;2.58;1.20;;;9.50;74.70;;;;;;5060097;28;20029;-65
2021/09/30 06:11:20;;;;;;;2.17;0.90;;;9.50;75.10;;;;;;5037765;28;20037;-65
2021/09/30 06:16:24;;;;;;;4.10;1.10;;;9.60;75.40;;;;;;5033822;28;20030;-64
2021/09/30 06:18:49;;;;;;;1.73;1.00;;;9.50;75.40;;;;;;5038337;28;20036;-65
2021/09/30 06:21:15;;;;;;;3.50;1.00;;;9.50;75.40;;;;;;5056819;28;20033;-65
2021/09/30 06:23:41;;;;;;;4.00;0.90;;;9.50;75.60;;;;;;5058077;28;20056;-65
2021/09/30 06:26:07;;;;;;;2.22;0.95;;;9.50;75.90;;;;;;5058782;28;20029;-66
2021/09/30 06:28:33;;;;;;;4.40;1.00;;;9.50;76.10;;;;;;5055885;28;20040;-65
2021/09/30 06:30:59;;;;;;;2.85;0.93;;;9.50;76.30;;;;;;5057096;28;20038;-64
2021/09/30 06:33:24;;;;;;;2.83;1.05;;;9.50;76.30;;;;;;5056830;28;20428;-64
2021/09/30 06:35:51;;;;;;;2.75;0.85;;;9.50;76.50;;;;;;5056674;28;20316;-65
2021/09/30 06:38:17;;;;;;;4.53;1.15;;;9.60;76.70;;;;;;5056215;28;20037;-65
2021/09/30 06:40:43;;;;;;;5.97;1.20;;;9.60;76.80;;;;;;5052263;28;20044;-66
2021/09/30 06:43:08;;;;;;;5.60;1.15;;;9.70;76.70;;;;;;5056031;28;20040;-66
2021/09/30 06:45:34;;;;;;;4.07;0.90;;;9.70;76.70;;;;;;5056006;28;20099;-66
2021/09/30 06:48:00;;;;;;;4.85;0.88;;;9.80;76.80;;;;;;5054100;28;20116;-66
2021/09/30 06:50:26;;;;;;;5.40;0.95;;;9.80;76.60;;;;;;5056274;28;20070;-66
2021/09/30 06:52:52;;;;;;;1.83;0.70;;;9.90;77.30;;;;;;5057409;28;20036;-66
2021/09/30 06:55:18;;;;;;;1.48;0.70;;;9.90;76.40;;;;;;5053874;28;20048;-65
2021/09/30 06:57:45;;;;;;;3.47;0.80;;;10.00;76.40;;;;;;5059196;28;20041;-66
2021/09/30 07:00:12;;;;;;;3.30;0.88;;;10.10;76.50;;;;;;5057099;28;20045;-65
2021/09/30 07:02:39;;;;;;;3.67;1.17;;;10.10;76.70;;;;;;5044244;28;20059;-65
2021/09/30 07:05:05;;;;;;;1.55;0.93;;;10.10;76.60;;;;;;5055866;28;20033;-65
2021/09/30 07:07:32;;;;;;;3.58;1.30;;;10.20;76.80;;;;;;5050965;28;20111;-66
2021/09/30 07:09:58;;;;;;;2.92;0.90;;;10.20;76.90;;;;;;5056519;28;20035;-66
2021/09/30 07:12:23;;;;;;;1.33;0.82;;;10.30;77.00;;;;;;5051304;28;20037;-65
2021/09/30 07:14:49;;;;;;;3.25;0.90;;;10.30;77.00;;;;;;5055436;28;20480;-65
2021/09/30 07:17:15;;;;;;;1.92;0.68;;;10.30;77.10;;;;;;5054490;28;20041;-66
2021/09/30 07:19:40;;;;;;;1.08;0.80;;;10.40;76.90;;;;;;5055951;28;20033;-66
2021/09/30 07:22:08;;;;;;;1.88;0.70;;;10.40;76.80;;;;;;5052938;28;20033;-65
2021/09/30 07:24:37;;;;;;;2.72;0.70;;;10.40;76.90;;;;;;5054048;28;20029;-66
2021/09/30 07:27:07;;;;;;;1.67;0.77;;;10.50;77.00;;;;;;5054981;28;20044;-66
2021/09/30 07:29:33;;;;;;;1.98;0.80;;;10.50;76.80;;;;;;5057237;28;20245;-65
2021/09/30 07:31:59;;;;;;;1.90;0.70;;;10.50;76.50;;;;;;5051570;28;20025;-66
2021/09/30 07:34:25;;;;;;;2.88;0.65;;;10.60;76.60;;;;;;5055772;28;20056;-65
2021/09/30 07:36:51;;;;;;;1.52;0.73;;;10.60;76.60;;;;;;5050792;28;20036;-65
2021/09/30 07:39:17;;;;;;;0.88;0.70;;;10.70;76.50;;;;;;5055129;28;20025;-66
2021/09/30 07:41:44;;;;;;;3.10;0.73;;;10.80;76.60;;;;;;5055013;28;20063;-65
2021/09/30 07:44:10;;;;;;;2.08;0.63;;;10.90;76.50;;;;;;5054756;28;20037;-65
2021/09/30 07:46:38;;;;;;;1.42;0.60;;;10.90;76.40;;;;;;5052308;28;20044;-65
2021/09/30 07:49:05;;;;;;;2.35;0.95;;;11.00;76.60;;;;;;5055320;28;20033;-66
2021/09/30 07:51:32;;;;;;;1.08;0.70;;;11.10;76.50;;;;;;5053589;28;20045;-66
2021/09/30 07:53:58;;;;;;;1.15;0.60;;;11.20;76.50;;;;;;5054868;28;20040;-65
2021/09/30 07:56:24;;;;;;;0.85;0.60;;;11.20;76.20;;;;;;5055471;28;20033;-66
2021/09/30 07:58:50;;;;;;;1.58;0.50;;;11.30;75.80;;;;;;5054310;28;20637;-66
2021/09/30 08:01:16;;;;;;;2.03;0.80;;;11.30;75.20;;;;;;5054518;28;20116;-66
2021/09/30 08:03:42;;;;;;;2.08;0.45;;;11.40;76.00;;;;;;5051775;28;20025;-65
2021/09/30 08:06:07;;;;;;;1.63;0.70;;;11.50;74.90;;;;;;5054339;28;20177;-66
2021/09/30 08:08:34;;;;;;;1.50;0.50;;;11.60;74.60;;;;;;5054002;28;20834;-65
2021/09/30 08:11:00;;;;;;;1.30;0.57;;;11.60;74.60;;;;;;5053114;28;20029;-66
2021/09/30 08:13:27;;;;;;;2.70;0.60;;;11.70;74.60;;;;;;5053212;28;20637;-66
2021/09/30 08:15:52;;;;;;;2.20;0.70;;;11.70;74.00;;;;;;5053951;28;20033;-65
2021/09/30 08:18:18;;;;;;;1.27;0.40;;;11.80;73.80;;;;;;5055278;28;20131;-66
2021/09/30 08:20:44;;;;;;;1.48;0.20;;;11.90;73.20;;;;;;5053390;28;20040;-65
2021/09/30 08:23:14;;;;;;;1.25;0.40;;;11.90;72.60;;;;;;5053307;28;20045;-66
2021/09/30 08:25:41;;;;;;;2.20;0.52;;;12.00;72.40;;;;;;5055319;28;20116;-66
2021/09/30 08:28:07;;;;;;;1.80;0.38;;;12.00;72.10;;;;;;5056340;28;20033;-66
2021/09/30 08:30:34;;;;;;;1.35;0.38;;;12.10;72.20;;;;;;5051406;28;20156;-66
2021/09/30 08:33:00;;;;;;;1.88;0.45;;;12.20;71.50;;;;;;5049707;28;20044;-65
2021/09/30 08:35:26;;;;;;;2.15;0.30;;;12.30;71.00;;;;;;5051562;28;20399;-66
2021/09/30 08:37:51;;;;;;;1.50;0.40;;;12.40;70.70;;;;;;5049316;28;20685;-66
2021/09/30 08:40:17;;;;;;;1.20;0.47;;;12.50;69.80;;;;;;5051308;28;20032;-65
2021/09/30 08:42:47;;;;;;;0.60;0.30;;;12.50;69.50;;;;;;5053295;28;20041;-66
2021/09/30 08:45:20;;;;;;;1.25;0.30;;;12.60;69.50;;;;;;5052753;28;20044;-66
2021/09/30 08:47:59;;;;;;;1.70;0.20;;;12.70;68.10;;;;;;5049115;28;20045;-66
2021/09/30 08:50:25;;;;;;;2.03;0.43;;;12.70;67.40;;;;;;5052933;28;20113;-66
2021/09/30 08:52:51;;;;;;;2.47;0.30;;;12.80;68.10;;;;;;5054130;28;20036;-66
2021/09/30 08:55:17;;;;;;;1.52;0.20;;;12.90;67.80;;;;;;5053042;28;20493;-66
2021/09/30 08:57:47;;;;;;;1.30;0.30;;;12.90;67.20;;;;;;5053260;28;20033;-66
2021/09/30 09:00:15;;;;;;;2.75;0.30;;;13.00;66.20;;;;;;5054109;28;20029;-65
2021/09/30 09:02:52;;;;;;;2.63;0.32;;;13.10;66.40;;;;;;5053483;28;20610;-66
2021/09/30 09:05:19;;;;;;;1.90;0.22;;;13.10;65.50;;;;;;5055116;28;20063;-66
2021/09/30 09:07:52;;;;;;;0.82;0.30;;;13.20;66.10;;;;;;5053999;28;20025;-66
2021/09/30 09:10:20;;;;;;;2.67;0.20;;;13.30;64.90;;;;;;5052867;28;20060;-66
2021/09/30 09:12:46;;;;;;;1.13;0.20;;;13.30;64.40;;;;;;5050823;28;20407;-66
2021/09/30 09:15:12;;;;;;;1.55;0.43;;;13.30;64.00;;;;;;5055240;28;20036;-66
2021/09/30 09:17:40;;;;;;;0.82;0.22;;;13.40;64.80;;;;;;5054497;28;20029;-67
2021/09/30 09:20:06;;;;;;;1.80;0.28;;;13.40;63.80;;;;;;5054507;28;20133;-66
2021/09/30 09:22:37;;;;;;;0.70;0.10;;;13.40;64.20;;;;;;5050365;28;20029;-66
2021/09/30 09:25:10;;;;;;;2.35;0.20;;;13.50;63.60;;;;;;5055485;28;20103;-66
2021/09/30 09:27:45;;;;;;;0.57;0.30;;;13.60;62.30;;;;;;5050371;28;20129;-66
2021/09/30 09:30:30;;;;;;;1.70;0.30;;;13.60;61.20;;;;;;5052625;28;20037;-66
2021/09/30 09:33:17;;;;;;;3.08;0.30;;;13.60;61.10;;;;;;5029087;28;20044;-66
2021/09/30 09:35:55;;;;;;;1.23;0.20;;;13.70;61.30;;;;;;5031023;28;20129;-66
2021/09/30 09:38:26;;;;;;;1.15;0.20;;;13.70;61.30;;;;;;5035263;28;20033;-66
2021/09/30 09:40:57;;;;;;;1.38;0.13;;;13.80;61.70;;;;;;5037033;28;20510;-66
2021/09/30 09:43:29;;;;;;;4.28;0.50;;;13.80;61.70;;;;;;5052801;28;20036;-66
2021/09/30 09:45:55;;;;;;;0.90;0.20;;;13.80;61.50;;;;;;5054244;28;20033;-67
2021/09/30 09:48:20;;;;;;;1.70;0.17;;;13.90;61.90;;;;;;5054749;28;20448;-66
2021/09/30 09:50:50;;;;;;;1.13;0.22;;;13.90;61.90;;;;;;5056356;28;20044;-66
2021/09/30 09:53:17;;;;;;;1.00;0.20;;;14.10;60.60;;;;;;5056067;28;20041;-66
2021/09/30 09:55:43;;;;;;;2.10;0.50;;;14.10;61.00;;;;;;5055883;28;20033;-68
2021/09/30 09:58:18;;;;;;;1.10;0.20;;;14.10;60.40;;;;;;5055266;28;20167;-65
2021/09/30 10:00:49;;;;;;;2.70;1.98;;;14.10;59.70;;;;;;5054734;28;20040;-66
2021/09/30 10:03:30;;;;;;;3.33;0.70;;;14.20;60.50;;;;;;5058576;28;20036;-66
2021/09/30 10:05:57;;;;;;;1.13;0.30;;;14.20;60.10;;;;;;5058941;28;20724;-66
2021/09/30 10:08:23;;;;;;;0.90;0.30;;;14.20;60.30;;;;;;5056989;28;20036;-67
2021/09/30 10:10:50;;;;;;;2.53;0.35;;;14.20;60.10;;;;;;5056379;28;20082;-66
2021/09/30 10:13:17;;;;;;;2.33;0.40;;;14.30;60.70;;;;;;5057093;28;20033;-67
2021/09/30 10:15:43;;;;;;;1.20;0.40;;;14.30;60.30;;;;;;5059276;28;20039;-67
2021/09/30 10:18:11;;;;;;;1.67;0.35;;;14.40;60.40;;;;;;5060440;28;20158;-67
2021/09/30 10:20:38;;;;;;;2.92;0.30;;;14.40;60.40;;;;;;5058848;28;20037;-64
2021/09/30 10:23:06;;;;;;;2.10;0.22;;;14.40;60.40;;;;;;5058471;28;20082;-66
2021/09/30 10:25:44;;;;;;;1.92;0.32;;;14.40;60.60;;;;;;5057770;28;20123;-67
2021/09/30 10:28:12;;;;;;;4.55;0.47;;;14.50;60.40;;;;;;5073050;28;20037;-66
2021/09/30 10:30:43;;;;;;;2.38;0.60;;;14.60;60.10;;;;;;5057677;28;20057;-69
2021/09/30 10:33:20;;;;;;;2.90;0.30;;;14.60;59.40;;;;;;5057976;28;20101;-66
2021/09/30 10:35:55;;;;;;;1.67;0.40;;;14.70;59.50;;;;;;5057083;28;20072;-66
2021/09/30 10:38:29;;;;;;;2.60;0.30;;;14.70;59.30;;;;;;5059245;28;20563;-66
2021/09/30 10:41:01;;;;;;;0.82;0.50;;;14.80;59.60;;;;;;5058189;28;20036;-66
2021/09/30 10:43:35;;;;;;;2.10;0.52;;;14.80;59.30;;;;;;5056835;28;20036;-68
2021/09/30 10:46:02;;;;;;;1.15;0.28;;;14.90;59.00;;;;;;5057691;28;20041;-67
2021/09/30 10:48:28;;;;;;;1.67;0.22;;;14.90;59.80;;;;;;5049033;28;20045;-67
2021/09/30 10:50:57;;;;;;;1.23;0.38;;;14.90;59.80;;;;;;5057943;28;20028;-65
2021/09/30 10:53:55;;;;;;;2.55;0.47;;;14.90;59.80;;;;;;5051309;28;20047;-66
2021/09/30 10:56:24;;;;;;;1.70;0.45;;;15.00;59.30;;;;;;5057161;28;20043;-66
2021/09/30 10:58:50;;;;;;;1.63;0.50;;;15.10;59.70;;;;;;5068720;28;20032;-69
2021/09/30 11:01:15;;;;;;;1.13;0.30;;;15.20;59.60;;;;;;5053722;28;20052;-66
2021/09/30 11:04:00;;;;;;;1.35;0.40;;;15.20;59.80;;;;;;5056309;28;20496;-67
2021/09/30 11:06:26;;;;;;;1.98;0.30;;;15.30;58.30;;;;;;5058018;28;20407;-66
2021/09/30 11:09:15;;;;;;;3.08;0.40;;;15.40;59.30;;;;;;5057231;28;20029;-66
2021/09/30 11:11:43;;;;;;;1.63;0.30;;;15.40;58.50;;;;;;5050860;28;20037;-66
2021/09/30 11:14:09;;;;;;;2.72;0.38;;;15.50;58.90;;;;;;5056696;28;20047;-67
2021/09/30 11:16:39;;;;;;;1.25;0.38;;;15.60;58.20;;;;;;5050785;28;20025;-66
2021/09/30 11:19:21;;;;;;;4.18;0.30;;;15.60;58.00;;;;;;5058147;28;20055;-66
2021/09/30 11:21:47;;;;;;;0.45;0.28;;;15.70;58.50;;;;;;5056594;28;20235;-66
2021/09/30 11:24:19;;;;;;;2.10;0.30;;;15.70;58.40;;;;;;5056066;28;20032;-66
2021/09/30 11:26:54;;;;;;;2.08;0.40;;;15.80;57.00;;;;;;5055733;28;20492;-66
2021/09/30 11:29:19;;;;;;;;;;;15.90;56.90;;;;;;5054436;28;20029;-66
2021/09/30 11:31:46;;;;;;;3.55;0.50;;;15.90;58.10;;;;;;5056024;28;19916;-65
2021/09/30 11:34:20;;;;;;;1.20;0.30;;;16.00;58.20;;;;;;5055242;28;20040;-67
2021/09/30 11:36:45;;;;;;;2.28;0.28;;;16.00;57.10;;;;;;5051818;28;20090;-66
2021/09/30 11:39:12;;;;;;;3.35;0.30;;;16.10;57.30;;;;;;5055134;28;20033;-66
2021/09/30 11:41:40;;;;;;;0.60;0.30;;;16.10;57.10;;;;;;5056124;28;20035;-67
2021/09/30 11:44:07;;;;;;;0.55;0.22;;;16.20;56.50;;;;;;5053421;28;20032;-67
2021/09/30 11:46:38;;;;;;;3.72;0.30;;;16.20;56.40;;;;;;5054357;28;20021;-66
2021/09/30 11:49:13;;;;;;;1.20;0.17;;;16.20;56.10;;;;;;5055280;28;20048;-67
2021/09/30 11:51:50;;;;;;;1.83;0.30;;;16.30;55.30;;;;;;5054186;28;20016;-66
2021/09/30 11:54:22;;;;;;;0.52;0.20;;;16.30;55.20;;;;;;5054912;28;20036;-64
2021/09/30 11:56:48;;;;;;;2.88;0.30;;;16.40;55.90;;;;;;5051290;28;20083;-67
2021/09/30 11:59:17;;;;;;;2.00;0.20;;;16.40;55.70;;;;;;5034664;28;20021;-66
2021/09/30 12:02:02;;;;;;;2.20;0.20;;;16.40;55.50;;;;;;5033662;28;20633;-64
2021/09/30 12:04:33;;;;;;;3.15;0.30;;;16.40;55.10;;;;;;5034264;28;20032;-66
2021/09/30 12:06:59;;;;;;;0.77;0.20;;;16.40;55.70;;;;;;5036833;28;20130;-67
2021/09/30 12:09:25;;;;;;;1.98;0.40;;;16.40;55.70;;;;;;5034018;28;20499;-66
2021/09/30 12:11:56;;;;;;;1.60;0.20;;;16.50;55.50;;;;;;5029230;28;20120;-67
2021/09/30 12:14:23;;;;;;;1.38;0.20;;;16.50;55.00;;;;;;5033369;28;20140;-67
2021/09/30 12:17:02;;;;;;;0.52;0.30;;;16.60;55.00;;;;;;5036697;28;20026;-67
2021/09/30 12:19:29;;;;;;;0.52;0.17;;;16.60;54.30;;;;;;5034779;28;20323;-67
2021/09/30 12:21:55;;;;;;;0.73;0.20;;;16.60;53.70;;;;;;5035558;28;20022;-67
2021/09/30 12:24:24;;;;;;;0.90;0.20;;;16.70;53.50;;;;;;5034142;28;20041;-66
2021/09/30 12:26:51;;;;;;;1.40;0.30;;;16.70;54.10;;;;;;5038597;28;20104;-66
2021/09/30 12:29:17;;;;;;;0.98;0.13;;;16.60;54.10;;;;;;5052176;28;20033;-66
2021/09/30 12:31:44;;;;;;;1.20;0.15;;;16.60;53.40;;;;;;5055145;28;20132;-67
2021/09/30 12:34:25;;;;;;;1.15;0.30;;;16.60;53.80;;;;;;5047769;28;20028;-66
2021/09/30 12:36:51;;;;;;;3.10;0.47;;;16.60;54.00;;;;;;5035823;28;20552;-67
2021/09/30 12:39:27;;;;;;;1.73;0.20;;;16.60;54.50;;;;;;5033544;28;20294;-66
2021/09/30 12:41:55;;;;;;;5.50;0.43;;;16.60;54.00;;;;;;5030833;28;20087;-67
2021/09/30 12:44:21;;;;;;;1.83;0.20;;;16.70;54.70;;;;;;5034725;28;20033;-66
2021/09/30 12:46:52;;;;;;;1.40;0.30;;;16.80;54.60;;;;;;5034570;28;20345;-66
2021/09/30 12:49:19;;;;;;;0.75;0.43;;;16.80;54.00;;;;;;5034171;28;20489;-66
2021/09/30 12:51:45;;;;;;;0.82;0.20;;;16.90;53.90;;;;;;5033372;28;20403;-65
2021/09/30 12:54:11;;;;;;;1.05;0.20;;;16.90;53.90;;;;;;5033897;28;20041;-67
2021/09/30 12:56:37;;;;;;;0.80;0.20;;;17.00;54.00;;;;;;5035593;28;20075;-66
2021/09/30 12:59:14;;;;;;;1.77;0.20;;;17.00;53.40;;;;;;5032423;28;20048;-66
2021/09/30 13:01:42;;;;;;;0.65;0.10;;;17.00;52.20;;;;;;5035033;28;20029;-67
2021/09/30 13:04:24;;;;;;;1.33;0.20;;;16.90;53.00;;;;;;5033077;28;20033;-67
2021/09/30 13:06:57;;;;;;;1.52;0.20;;;16.90;52.60;;;;;;5036706;28;20021;-66
2021/09/30 13:09:29;;;;;;;2.95;0.40;;;16.90;52.20;;;;;;5053744;28;20024;-67
2021/09/30 13:11:57;;;;;;;1.48;0.20;;;16.90;52.40;;;;;;5050352;28;20033;-66
2021/09/30 13:14:33;;;;;;;0.85;0.30;;;16.90;52.70;;;;;;5054532;28;20040;-67
2021/09/30 13:17:08;;;;;;;0.85;0.28;;;16.90;52.60;;;;;;5051023;28;20018;-66
2021/09/30 13:19:51;;;;;;;0.90;0.30;;;16.90;52.50;;;;;;5052480;28;20508;-66
2021/09/30 13:22:27;;;;;;;1.55;0.20;;;16.80;51.80;;;;;;5053601;28;20087;-67
2021/09/30 13:24:54;;;;;;;0.82;0.22;;;16.80;52.40;;;;;;5053201;28;20090;-67
2021/09/30 13:27:23;;;;;;;1.00;0.30;;;16.80;53.00;;;;;;5057246;28;20120;-67
2021/09/30 13:29:49;;;;;;;2.03;0.50;;;16.80;52.90;;;;;;5056570;28;20142;-67
2021/09/30 13:32:16;;;;;;;1.35;0.20;;;16.90;52.90;;;;;;5055926;28;20037;-67
2021/09/30 13:34:42;;;;;;;2.08;0.20;;;16.90;53.00;;;;;;5056034;28;20037;-66
2021/09/30 13:37:08;;;;;;;0.68;0.22;;;16.90;53.00;;;;;;5053037;28;20033;-67
2021/09/30 13:39:34;;;;;;;4.85;0.32;;;16.90;52.80;;;;;;5056544;28;20065;-67
2021/09/30 13:42:01;;;;;;;0.30;0.20;;;17.00;52.80;;;;;;5053691;28;20123;-67
2021/09/30 13:44:27;;;;;;;1.08;0.30;;;17.00;52.60;;;;;;5058110;28;20029;-66
2021/09/30 13:46:53;;;;;;;2.20;0.20;;;17.00;52.50;;;;;;5053534;28;20033;-67
2021/09/30 13:49:18;;;;;;;0.45;0.25;;;17.00;51.50;;;;;;5057180;28;20059;-66
2021/09/30 13:51:44;;;;;;;0.80;0.20;;;17.00;51.80;;;;;;5054632;28;20028;-64
2021/09/30 13:54:10;;;;;;;2.65;0.38;;;17.00;51.90;;;;;;5055720;28;20041;-66
2021/09/30 13:56:36;;;;;;;1.02;0.25;;;17.00;52.00;;;;;;5056992;28;20488;-66
2021/09/30 13:59:02;;;;;;;2.25;0.22;;;17.00;51.90;;;;;;5056754;28;20036;-66
2021/09/30 14:01:28;;;;;;;1.55;0.10;;;17.00;51.90;;;;;;5058419;28;20032;-66
2021/09/30 14:03:54;;;;;;;1.70;0.20;;;17.00;52.00;;;;;;5057975;28;20507;-66
2021/09/30 14:06:21;;;;;;;1.20;0.20;;;17.00;52.00;;;;;;5058322;28;20075;-66
2021/09/30 14:08:49;;;;;;;0.73;0.30;;;17.00;52.00;;;;;;5055428;28;20032;-66
2021/09/30 14:11:15;;;;;;;0.50;0.10;;;17.10;52.00;;;;;;5054733;28;20037;-66
2021/09/30 14:13:42;;;;;;;1.58;0.30;;;17.10;52.00;;;;;;5054029;28;20029;-66
2021/09/30 14:16:09;;;;;;;0.63;0.20;;;17.10;51.80;;;;;;5055276;28;20607;-66
2021/09/30 14:18:35;;;;;;;1.60;0.40;;;17.10;51.50;;;;;;5057496;28;20044;-65
2021/09/30 14:21:01;;;;;;;1.40;0.30;;;17.10;51.30;;;;;;5057962;28;20044;-67
2021/09/30 14:23:27;;;;;;;1.00;0.40;;;17.10;51.40;;;;;;5053544;28;20041;-66
2021/09/30 14:25:53;;;;;;;1.08;0.30;;;17.20;51.50;;;;;;5054214;28;20076;-67
2021/09/30 14:28:19;;;;;;;1.00;0.30;;;17.20;51.10;;;;;;5055232;28;20125;-64
2021/09/30 14:30:45;;;;;;;1.35;0.20;;;17.20;51.00;;;;;;5054584;28;20057;-66
2021/09/30 14:33:11;;;;;;;2.08;0.30;;;17.20;51.00;;;;;;5054426;28;20040;-66
2021/09/30 14:35:37;;;;;;;0.73;0.20;;;17.20;50.90;;;;;;5054701;28;20537;-66
2021/09/30 14:38:04;;;;;;;1.65;0.20;;;17.20;51.00;;;;;;5057615;28;20029;-66
2021/09/30 14:40:30;;;;;;;1.08;0.40;;;17.20;51.00;;;;;;5055512;28;20041;-66
2021/09/30 14:42:56;;;;;;;2.30;0.20;;;17.20;51.00;;;;;;5056731;28;20400;-66
2021/09/30 14:45:22;;;;;;;1.20;0.22;;;17.20;50.30;;;;;;5054974;28;20094;-66
2021/09/30 14:47:48;;;;;;;0.50;0.25;;;17.10;49.90;;;;;;5050860;28;20059;-64
2021/09/30 14:50:14;;;;;;;0.73;0.17;;;17.10;50.60;;;;;;5033948;28;20797;-66
2021/09/30 14:52:39;;;;;;;0.95;0.20;;;17.10;50.80;;;;;;5046435;28;20574;-66
2021/09/30 14:55:06;;;;;;;0.38;0.20;;;17.10;50.50;;;;;;5049035;28;20567;-66
2021/09/30 14:57:32;;;;;;;1.20;0.30;;;17.10;51.00;;;;;;5051480;28;20045;-67
2021/09/30 14:59:58;;;;;;;0.60;0.30;;;17.10;51.00;;;;;;5049985;28;20036;-66
2021/09/30 15:02:23;;;;;;;0.28;0.20;;;17.10;50.80;;;;;;5043891;28;20094;-66
2021/09/30 15:04:49;;;;;;;0.30;0.10;;;17.10;51.40;;;;;;5044261;28;20037;-67
2021/09/30 15:07:21;;;;;;;1.38;0.30;;;17.10;50.50;;;;;;5042422;28;20035;-65
2021/09/30 15:09:46;;;;;;;0.63;0.20;;;17.10;50.40;;;;;;5042888;28;20041;-66
2021/09/30 15:12:12;;;;;;;3.97;0.40;;;17.10;50.70;;;;;;5036214;28;20041;-65
2021/09/30 15:14:38;;;;;;;5.03;0.20;;;17.10;50.80;;;;;;5038643;28;20041;-66
2021/09/30 15:19:47;;;;;;;0.95;0.20;;;17.10;50.60;;;;;;5051586;28;20030;-65
2021/09/30 15:22:13;;;;;;;0.80;0.20;;;17.10;50.50;;;;;;5055386;28;20411;-65
2021/09/30 15:24:39;;;;;;;2.42;0.17;;;17.10;50.50;;;;;;5045411;28;20035;-66
2021/09/30 15:27:05;;;;;;;1.67;0.45;;;17.10;50.30;;;;;;5055481;28;20082;-66
2021/09/30 15:29:31;;;;;;;0.85;0.10;;;17.10;49.20;;;;;;5055182;28;20041;-65
2021/09/30 15:31:57;;;;;;;1.58;0.20;;;17.10;49.80;;;;;;5049410;28;20047;-66
2021/09/30 15:34:22;;;;;;;3.30;0.20;;;17.00;49.90;;;;;;5053855;28;20033;-66
2021/09/30 15:36:48;;;;;;;0.57;0.20;;;17.00;50.20;;;;;;5034893;28;20041;-68
2021/09/30 15:39:14;;;;;;;0.75;0.20;;;17.00;50.40;;;;;;5020546;28;20029;-67
2021/09/30 15:41:39;;;;;;;0.80;0.20;;;17.00;50.30;;;;;;5022594;28;20029;-68
2021/09/30 15:44:05;;;;;;;1.10;0.20;;;17.00;49.80;;;;;;5027305;28;20025;-68
2021/09/30 15:46:32;;;;;;;0.90;0.10;;;16.90;49.20;;;;;;5028951;28;20040;-68
2021/09/30 15:48:57;;;;;;;1.58;0.30;;;16.90;49.10;;;;;;5029034;28;20041;-69
2021/09/30 15:51:23;;;;;;;1.08;0.15;;;16.90;49.30;;;;;;5035944;28;20090;-68
2021/09/30 15:53:49;;;;;;;6.35;0.70;;;16.80;50.00;;;;;;5035037;28;20033;-68
2021/09/30 15:56:15;;;;;;;0.75;0.22;;;16.80;49.70;;;;;;5034547;28;20053;-68
2021/09/30 15:58:41;;;;;;;0.47;0.20;;;16.80;49.80;;;;;;5035138;28;20044;-68
2021/09/30 16:01:07;;;;;;;0.80;0.20;;;16.70;50.00;;;;;;5034768;28;20583;-69